Search for airport 
image banner adimage banner adimage banner ad
image banner ad

15CA - Stanford University Hospital Center

Located in Palo Alto, United States

ICAO - 15CA, IATA -

Data provided by Airmate  

General information

Coordinates: N37°26'7" W122°10'28"
Elevation is 84 feet MSL.
Magnetic variation is 16° East
View others Airports in California

Operational data

Special qualification required
Current time UTC:
Current local time:
Weather at : KPAO - Palo Alto ( 6 km )
METAR: KPAO 221447Z VRB04KT 10SM BKN024 17/12 A2993
View NOTAMs / SUP AIP / TFR affecting this airport [VIEW]
Communications frequencies: [VIEW]

Runways:

Airport contact information

Address: Palo Alto United States

Satellite view of 15CA